sensor_id;sensor_type;location;lat;lon;timestamp;P1;durP1;ratioP1;P2;durP2;ratioP2
3817;SDS011;1924;48.078;11.516;2023-04-25T04:01:49;27.10;;;0.80;;
3817;SDS011;1924;48.078;11.516;2023-04-25T04:04:15;27.00;;;0.80;;
3817;SDS011;1924;48.078;11.516;2023-04-25T04:06:42;27.00;;;0.80;;
3817;SDS011;1924;48.078;11.516;2023-04-25T04:09:09;27.10;;;0.80;;
3817;SDS011;1924;48.078;11.516;2023-04-25T04:11:36;26.90;;;0.80;;
3817;SDS011;1924;48.078;11.516;2023-04-25T04:14:03;26.70;;;0.80;;
3817;SDS011;1924;48.078;11.516;2023-04-25T04:16:30;27.10;;;0.80;;
3817;SDS011;1924;48.078;11.516;2023-04-25T04:18:58;27.00;;;0.80;;
3817;SDS011;1924;48.078;11.516;2023-04-25T04:21:25;27.00;;;0.80;;
3817;SDS011;1924;48.078;11.516;2023-04-25T04:23:52;26.90;;;0.80;;
3817;SDS011;1924;48.078;11.516;2023-04-25T04:26:19;27.10;;;0.80;;
3817;SDS011;1924;48.078;11.516;2023-04-25T04:28:48;27.10;;;0.80;;
3817;SDS011;1924;48.078;11.516;2023-04-25T04:31:15;26.90;;;0.80;;
3817;SDS011;1924;48.078;11.516;2023-04-25T04:33:44;27.00;;;0.80;;
3817;SDS011;1924;48.078;11.516;2023-04-25T04:36:12;26.90;;;0.80;;
3817;SDS011;1924;48.078;11.516;2023-04-25T04:38:40;27.10;;;0.80;;
3817;SDS011;1924;48.078;11.516;2023-04-25T04:41:08;26.90;;;0.80;;
3817;SDS011;1924;48.078;11.516;2023-04-25T04:43:35;27.20;;;0.80;;
3817;SDS011;1924;48.078;11.516;2023-04-25T04:46:01;27.20;;;0.80;;
3817;SDS011;1924;48.078;11.516;2023-04-25T04:48:29;27.07;;;0.80;;
3817;SDS011;1924;48.078;11.516;2023-04-25T04:50:57;27.10;;;0.80;;
3817;SDS011;1924;48.078;11.516;2023-04-25T04:53:25;27.30;;;0.80;;
3817;SDS011;1924;48.078;11.516;2023-04-25T04:55:52;27.00;;;0.80;;
3817;SDS011;1924;48.078;11.516;2023-04-25T04:58:21;27.10;;;0.80;;
3817;SDS011;1924;48.078;11.516;2023-04-25T05:00:48;27.00;;;0.80;;
3817;SDS011;1924;48.078;11.516;2023-04-25T05:03:15;27.10;;;0.80;;
3817;SDS011;1924;48.078;11.516;2023-04-25T05:05:42;27.20;;;0.80;;
3817;SDS011;1924;48.078;11.516;2023-04-25T05:08:08;27.10;;;0.80;;
3817;SDS011;1924;48.078;11.516;2023-04-25T05:10:36;27.20;;;0.80;;
3817;SDS011;1924;48.078;11.516;2023-04-25T05:13:03;27.10;;;0.80;;
3817;SDS011;1924;48.078;11.516;2023-04-25T05:15:30;27.20;;;0.80;;
3817;SDS011;1924;48.078;11.516;2023-04-25T05:17:57;27.20;;;0.80;;
3817;SDS011;1924;48.078;11.516;2023-04-25T05:20:23;27.00;;;0.80;;
3817;SDS011;1924;48.078;11.516;2023-04-25T05:22:50;27.10;;;0.80;;
3817;SDS011;1924;48.078;11.516;2023-04-25T05:25:17;27.10;;;0.80;;
3817;SDS011;1924;48.078;11.516;2023-04-25T05:27:45;27.00;;;0.80;;
3817;SDS011;1924;48.078;11.516;2023-04-25T05:30:12;27.10;;;0.80;;
3817;SDS011;1924;48.078;11.516;2023-04-25T05:32:39;27.00;;;0.80;;
3817;SDS011;1924;48.078;11.516;2023-04-25T05:35:06;27.10;;;0.80;;
3817;SDS011;1924;48.078;11.516;2023-04-25T05:37:33;27.20;;;0.80;;
3817;SDS011;1924;48.078;11.516;2023-04-25T05:40:00;27.10;;;0.80;;
3817;SDS011;1924;48.078;11.516;2023-04-25T05:42:31;27.20;;;0.80;;
3817;SDS011;1924;48.078;11.516;2023-04-25T05:44:59;27.20;;;0.80;;
3817;SDS011;1924;48.078;11.516;2023-04-25T05:47:27;27.30;;;0.80;;
3817;SDS011;1924;48.078;11.516;2023-04-25T05:49:54;27.17;;;0.80;;
3817;SDS011;1924;48.078;11.516;2023-04-25T05:52:21;27.60;;;0.80;;
3817;SDS011;1924;48.078;11.516;2023-04-25T05:54:48;27.30;;;0.80;;
3817;SDS011;1924;48.078;11.516;2023-04-25T05:57:21;27.60;;;0.80;;
3817;SDS011;1924;48.078;11.516;2023-04-25T05:59:49;27.60;;;0.80;;
3817;SDS011;1924;48.078;11.516;2023-04-25T06:02:17;27.40;;;0.80;;
3817;SDS011;1924;48.078;11.516;2023-04-25T06:04:44;27.17;;;0.80;;
3817;SDS011;1924;48.078;11.516;2023-04-25T06:07:10;27.20;;;0.80;;
3817;SDS011;1924;48.078;11.516;2023-04-25T06:09:37;27.30;;;0.80;;
3817;SDS011;1924;48.078;11.516;2023-04-25T06:12:05;27.30;;;0.80;;
3817;SDS011;1924;48.078;11.516;2023-04-25T06:14:32;27.10;;;0.80;;
3817;SDS011;1924;48.078;11.516;2023-04-25T06:16:59;27.20;;;0.80;;
3817;SDS011;1924;48.078;11.516;2023-04-25T06:19:32;27.10;;;0.80;;
3817;SDS011;1924;48.078;11.516;2023-04-25T06:21:59;27.10;;;0.80;;
3817;SDS011;1924;48.078;11.516;2023-04-25T06:24:26;27.10;;;0.80;;
3817;SDS011;1924;48.078;11.516;2023-04-25T06:26:53;27.20;;;0.80;;
3817;SDS011;1924;48.078;11.516;2023-04-25T06:29:20;27.00;;;0.80;;
3817;SDS011;1924;48.078;11.516;2023-04-25T06:31:47;27.10;;;0.80;;
3817;SDS011;1924;48.078;11.516;2023-04-25T06:34:14;27.10;;;0.80;;
3817;SDS011;1924;48.078;11.516;2023-04-25T06:36:43;27.10;;;0.80;;
3817;SDS011;1924;48.078;11.516;2023-04-25T06:39:10;27.10;;;0.80;;
3817;SDS011;1924;48.078;11.516;2023-04-25T06:41:37;27.10;;;0.80;;
3817;SDS011;1924;48.078;11.516;2023-04-25T06:44:03;27.10;;;0.80;;
3817;SDS011;1924;48.078;11.516;2023-04-25T06:46:31;27.20;;;0.80;;
3817;SDS011;1924;48.078;11.516;2023-04-25T06:48:57;27.20;;;0.80;;
3817;SDS011;1924;48.078;11.516;2023-04-25T06:51:24;27.10;;;0.80;;
3817;SDS011;1924;48.078;11.516;2023-04-25T06:53:54;27.20;;;0.80;;
3817;SDS011;1924;48.078;11.516;2023-04-25T06:56:21;27.20;;;0.80;;
3817;SDS011;1924;48.078;11.516;2023-04-25T06:58:48;27.20;;;0.80;;
3817;SDS011;1924;48.078;11.516;2023-04-25T07:01:15;27.30;;;0.80;;
3817;SDS011;1924;48.078;11.516;2023-04-25T07:03:42;27.20;;;0.80;;
3817;SDS011;1924;48.078;11.516;2023-04-25T07:06:08;27.27;;;0.70;;
3817;SDS011;1924;48.078;11.516;2023-04-25T07:08:35;27.20;;;0.80;;
3817;SDS011;1924;48.078;11.516;2023-04-25T07:11:03;27.30;;;0.80;;
3817;SDS011;1924;48.078;11.516;2023-04-25T07:13:30;27.20;;;0.80;;
3817;SDS011;1924;48.078;11.516;2023-04-25T07:15:57;27.40;;;0.80;;
3817;SDS011;1924;48.078;11.516;2023-04-25T07:18:23;27.10;;;0.80;;
3817;SDS011;1924;48.078;11.516;2023-04-25T07:20:50;27.20;;;0.80;;
3817;SDS011;1924;48.078;11.516;2023-04-25T07:23:17;27.30;;;0.80;;
3817;SDS011;1924;48.078;11.516;2023-04-25T07:25:44;27.30;;;0.80;;
3817;SDS011;1924;48.078;11.516;2023-04-25T07:28:12;27.30;;;0.80;;
3817;SDS011;1924;48.078;11.516;2023-04-25T07:30:38;27.40;;;0.80;;
3817;SDS011;1924;48.078;11.516;2023-04-25T07:33:05;27.40;;;0.80;;
3817;SDS011;1924;48.078;11.516;2023-04-25T07:35:32;27.40;;;0.80;;
3817;SDS011;1924;48.078;11.516;2023-04-25T07:37:59;27.50;;;0.77;;
3817;SDS011;1924;48.078;11.516;2023-04-25T07:40:25;27.80;;;0.80;;
3817;SDS011;1924;48.078;11.516;2023-04-25T07:42:52;27.80;;;0.80;;
3817;SDS011;1924;48.078;11.516;2023-04-25T07:45:20;28.10;;;0.80;;
3817;SDS011;1924;48.078;11.516;2023-04-25T07:47:47;28.10;;;0.80;;
3817;SDS011;1924;48.078;11.516;2023-04-25T07:50:14;28.40;;;0.80;;
3817;SDS011;1924;48.078;11.516;2023-04-25T07:52:40;28.60;;;0.80;;
3817;SDS011;1924;48.078;11.516;2023-04-25T07:55:07;28.57;;;0.80;;
3817;SDS011;1924;48.078;11.516;2023-04-25T07:57:35;28.50;;;0.80;;
3817;SDS011;1924;48.078;11.516;2023-04-25T08:00:02;28.50;;;0.80;;
3817;SDS011;1924;48.078;11.516;2023-04-25T08:02:35;28.37;;;0.80;;
3817;SDS011;1924;48.078;11.516;2023-04-25T08:05:03;28.60;;;0.80;;
3817;SDS011;1924;48.078;11.516;2023-04-25T08:07:33;28.80;;;0.80;;
3817;SDS011;1924;48.078;11.516;2023-04-25T08:10:00;28.60;;;0.80;;
3817;SDS011;1924;48.078;11.516;2023-04-25T08:12:27;28.80;;;0.80;;
3817;SDS011;1924;48.078;11.516;2023-04-25T08:14:54;28.70;;;0.80;;
3817;SDS011;1924;48.078;11.516;2023-04-25T08:17:23;28.80;;;0.80;;
3817;SDS011;1924;48.078;11.516;2023-04-25T08:19:51;28.60;;;0.80;;
3817;SDS011;1924;48.078;11.516;2023-04-25T08:22:17;28.57;;;0.80;;
3817;SDS011;1924;48.078;11.516;2023-04-25T08:24:44;28.60;;;0.80;;
3817;SDS011;1924;48.078;11.516;2023-04-25T08:27:11;28.43;;;0.80;;
3817;SDS011;1924;48.078;11.516;2023-04-25T08:29:38;28.40;;;0.80;;
3817;SDS011;1924;48.078;11.516;2023-04-25T08:32:05;28.40;;;0.80;;
3817;SDS011;1924;48.078;11.516;2023-04-25T08:34:31;28.50;;;0.80;;
3817;SDS011;1924;48.078;11.516;2023-04-25T08:36:59;28.43;;;0.80;;
3817;SDS011;1924;48.078;11.516;2023-04-25T08:39:26;28.30;;;0.80;;
3817;SDS011;1924;48.078;11.516;2023-04-25T08:41:53;28.13;;;0.80;;
3817;SDS011;1924;48.078;11.516;2023-04-25T08:44:20;28.40;;;0.80;;
3817;SDS011;1924;48.078;11.516;2023-04-25T08:46:48;28.50;;;0.80;;
3817;SDS011;1924;48.078;11.516;2023-04-25T08:49:15;28.40;;;0.80;;
3817;SDS011;1924;48.078;11.516;2023-04-25T08:51:44;28.40;;;0.80;;
3817;SDS011;1924;48.078;11.516;2023-04-25T08:54:14;28.50;;;0.80;;
3817;SDS011;1924;48.078;11.516;2023-04-25T08:56:43;28.50;;;0.80;;
3817;SDS011;1924;48.078;11.516;2023-04-25T08:59:11;28.50;;;0.80;;
3817;SDS011;1924;48.078;11.516;2023-04-25T09:01:38;28.47;;;0.80;;
3817;SDS011;1924;48.078;11.516;2023-04-25T09:04:05;28.50;;;0.80;;
3817;SDS011;1924;48.078;11.516;2023-04-25T09:06:32;28.47;;;0.80;;
3817;SDS011;1924;48.078;11.516;2023-04-25T09:09:01;28.57;;;0.80;;
3817;SDS011;1924;48.078;11.516;2023-04-25T09:11:31;28.40;;;0.80;;
3817;SDS011;1924;48.078;11.516;2023-04-25T09:14:11;28.57;;;0.80;;
3817;SDS011;1924;48.078;11.516;2023-04-25T09:16:57;28.67;;;0.80;;
3817;SDS011;1924;48.078;11.516;2023-04-25T09:19:25;28.80;;;0.80;;
3817;SDS011;1924;48.078;11.516;2023-04-25T09:21:53;28.70;;;0.80;;
3817;SDS011;1924;48.078;11.516;2023-04-25T09:24:28;28.63;;;0.80;;
3817;SDS011;1924;48.078;11.516;2023-04-25T09:27:04;28.40;;;0.80;;
3817;SDS011;1924;48.078;11.516;2023-04-25T09:29:31;28.40;;;0.80;;
3817;SDS011;1924;48.078;11.516;2023-04-25T09:32:15;28.40;;;0.80;;
3817;SDS011;1924;48.078;11.516;2023-04-25T09:34:45;28.30;;;0.80;;
3817;SDS011;1924;48.078;11.516;2023-04-25T09:37:17;28.40;;;0.80;;
3817;SDS011;1924;48.078;11.516;2023-04-25T09:39:45;28.27;;;0.80;;
3817;SDS011;1924;48.078;11.516;2023-04-25T09:42:14;28.40;;;0.80;;
3817;SDS011;1924;48.078;11.516;2023-04-25T09:44:42;28.20;;;0.80;;
3817;SDS011;1924;48.078;11.516;2023-04-25T09:47:10;28.33;;;0.80;;
3817;SDS011;1924;48.078;11.516;2023-04-25T09:49:39;28.50;;;0.80;;
3817;SDS011;1924;48.078;11.516;2023-04-25T09:52:07;28.47;;;0.80;;
3817;SDS011;1924;48.078;11.516;2023-04-25T09:54:34;28.43;;;0.80;;
3817;SDS011;1924;48.078;11.516;2023-04-25T09:57:02;28.70;;;0.80;;
3817;SDS011;1924;48.078;11.516;2023-04-25T09:59:38;28.70;;;0.70;;
3817;SDS011;1924;48.078;11.516;2023-04-25T10:02:08;28.70;;;0.80;;
3817;SDS011;1924;48.078;11.516;2023-04-25T10:04:36;28.50;;;0.80;;
3817;SDS011;1924;48.078;11.516;2023-04-25T10:07:05;28.70;;;0.80;;
3817;SDS011;1924;48.078;11.516;2023-04-25T10:09:33;28.60;;;0.80;;
3817;SDS011;1924;48.078;11.516;2023-04-25T10:12:02;28.70;;;0.80;;
3817;SDS011;1924;48.078;11.516;2023-04-25T10:14:29;28.67;;;0.80;;
3817;SDS011;1924;48.078;11.516;2023-04-25T10:16:58;28.40;;;0.80;;
3817;SDS011;1924;48.078;11.516;2023-04-25T10:19:25;28.70;;;0.80;;
3817;SDS011;1924;48.078;11.516;2023-04-25T10:21:54;28.60;;;0.80;;
3817;SDS011;1924;48.078;11.516;2023-04-25T10:24:27;28.60;;;0.80;;
3817;SDS011;1924;48.078;11.516;2023-04-25T10:26:54;28.50;;;0.80;;
3817;SDS011;1924;48.078;11.516;2023-04-25T10:29:22;28.87;;;0.80;;
3817;SDS011;1924;48.078;11.516;2023-04-25T10:31:51;28.43;;;0.80;;
3817;SDS011;1924;48.078;11.516;2023-04-25T10:34:19;28.40;;;0.80;;
3817;SDS011;1924;48.078;11.516;2023-04-25T10:36:51;28.40;;;0.80;;
3817;SDS011;1924;48.078;11.516;2023-04-25T10:39:22;28.30;;;0.80;;
3817;SDS011;1924;48.078;11.516;2023-04-25T10:41:55;28.50;;;0.80;;
3817;SDS011;1924;48.078;11.516;2023-04-25T10:44:22;28.70;;;0.80;;
3817;SDS011;1924;48.078;11.516;2023-04-25T10:46:52;28.50;;;0.80;;
3817;SDS011;1924;48.078;11.516;2023-04-25T10:49:32;28.40;;;0.80;;
3817;SDS011;1924;48.078;11.516;2023-04-25T10:52:18;28.60;;;0.80;;
3817;SDS011;1924;48.078;11.516;2023-04-25T10:54:51;28.50;;;0.80;;
3817;SDS011;1924;48.078;11.516;2023-04-25T10:57:32;28.50;;;0.80;;
3817;SDS011;1924;48.078;11.516;2023-04-25T11:00:10;28.40;;;0.80;;
3817;SDS011;1924;48.078;11.516;2023-04-25T11:02:41;28.60;;;0.80;;
3817;SDS011;1924;48.078;11.516;2023-04-25T11:05:11;28.27;;;0.80;;
3817;SDS011;1924;48.078;11.516;2023-04-25T11:07:49;28.30;;;0.80;;
3817;SDS011;1924;48.078;11.516;2023-04-25T11:10:18;28.50;;;0.80;;
3817;SDS011;1924;48.078;11.516;2023-04-25T11:12:45;28.40;;;0.80;;
3817;SDS011;1924;48.078;11.516;2023-04-25T11:15:13;28.20;;;0.80;;
3817;SDS011;1924;48.078;11.516;2023-04-25T11:17:40;28.10;;;0.80;;
3817;SDS011;1924;48.078;11.516;2023-04-25T11:20:08;28.20;;;0.80;;
3817;SDS011;1924;48.078;11.516;2023-04-25T11:22:38;28.00;;;0.80;;
3817;SDS011;1924;48.078;11.516;2023-04-25T11:25:07;28.20;;;0.80;;
3817;SDS011;1924;48.078;11.516;2023-04-25T11:27:37;28.20;;;0.80;;
3817;SDS011;1924;48.078;11.516;2023-04-25T11:30:12;28.10;;;0.80;;
3817;SDS011;1924;48.078;11.516;2023-04-25T11:32:40;27.97;;;0.80;;
3817;SDS011;1924;48.078;11.516;2023-04-25T11:35:08;28.20;;;0.80;;
3817;SDS011;1924;48.078;11.516;2023-04-25T11:37:35;28.17;;;0.80;;
3817;SDS011;1924;48.078;11.516;2023-04-25T11:40:03;28.20;;;0.80;;
3817;SDS011;1924;48.078;11.516;2023-04-25T11:42:33;27.90;;;0.80;;
3817;SDS011;1924;48.078;11.516;2023-04-25T11:45:00;28.00;;;0.80;;
3817;SDS011;1924;48.078;11.516;2023-04-25T11:47:28;27.90;;;0.80;;
3817;SDS011;1924;48.078;11.516;2023-04-25T11:49:55;27.90;;;0.80;;
3817;SDS011;1924;48.078;11.516;2023-04-25T11:52:23;27.80;;;0.80;;
3817;SDS011;1924;48.078;11.516;2023-04-25T11:54:50;27.70;;;0.80;;
3817;SDS011;1924;48.078;11.516;2023-04-25T11:57:19;28.00;;;0.80;;
3817;SDS011;1924;48.078;11.516;2023-04-25T11:59:46;27.90;;;0.80;;
3817;SDS011;1924;48.078;11.516;2023-04-25T12:02:23;27.73;;;0.80;;
3817;SDS011;1924;48.078;11.516;2023-04-25T12:04:51;28.00;;;0.80;;
3817;SDS011;1924;48.078;11.516;2023-04-25T12:07:18;27.80;;;0.80;;
3817;SDS011;1924;48.078;11.516;2023-04-25T12:09:51;27.60;;;0.80;;
3817;SDS011;1924;48.078;11.516;2023-04-25T12:12:19;27.80;;;0.80;;
3817;SDS011;1924;48.078;11.516;2023-04-25T12:14:46;27.90;;;0.80;;
3817;SDS011;1924;48.078;11.516;2023-04-25T12:17:14;27.80;;;0.80;;
3817;SDS011;1924;48.078;11.516;2023-04-25T12:19:43;27.50;;;0.80;;
3817;SDS011;1924;48.078;11.516;2023-04-25T12:22:19;27.70;;;0.80;;
3817;SDS011;1924;48.078;11.516;2023-04-25T12:24:47;27.40;;;0.80;;
3817;SDS011;1924;48.078;11.516;2023-04-25T12:27:14;27.70;;;0.80;;
3817;SDS011;1924;48.078;11.516;2023-04-25T12:29:51;27.30;;;0.80;;
3817;SDS011;1924;48.078;11.516;2023-04-25T12:32:19;27.40;;;0.80;;
3817;SDS011;1924;48.078;11.516;2023-04-25T12:34:45;27.60;;;0.80;;
3817;SDS011;1924;48.078;11.516;2023-04-25T12:37:12;27.40;;;0.80;;
3817;SDS011;1924;48.078;11.516;2023-04-25T12:39:40;27.30;;;0.80;;
3817;SDS011;1924;48.078;11.516;2023-04-25T12:42:06;27.40;;;0.80;;
3817;SDS011;1924;48.078;11.516;2023-04-25T12:44:36;27.30;;;0.80;;
3817;SDS011;1924;48.078;11.516;2023-04-25T12:47:04;27.50;;;0.80;;
3817;SDS011;1924;48.078;11.516;2023-04-25T12:49:31;27.30;;;0.80;;
3817;SDS011;1924;48.078;11.516;2023-04-25T12:51:59;27.40;;;0.80;;
3817;SDS011;1924;48.078;11.516;2023-04-25T12:54:25;27.50;;;0.80;;
3817;SDS011;1924;48.078;11.516;2023-04-25T12:56:52;27.30;;;0.80;;
3817;SDS011;1924;48.078;11.516;2023-04-25T12:59:19;27.40;;;0.80;;
3817;SDS011;1924;48.078;11.516;2023-04-25T13:01:46;27.20;;;0.70;;
3817;SDS011;1924;48.078;11.516;2023-04-25T13:04:14;27.50;;;0.80;;
3817;SDS011;1924;48.078;11.516;2023-04-25T13:06:41;27.40;;;0.80;;
3817;SDS011;1924;48.078;11.516;2023-04-25T13:09:08;27.60;;;0.80;;
3817;SDS011;1924;48.078;11.516;2023-04-25T13:11:37;27.50;;;0.70;;
3817;SDS011;1924;48.078;11.516;2023-04-25T13:14:04;27.17;;;0.80;;
3817;SDS011;1924;48.078;11.516;2023-04-25T13:16:31;27.40;;;0.80;;
3817;SDS011;1924;48.078;11.516;2023-04-25T13:18:58;27.30;;;0.77;;
3817;SDS011;1924;48.078;11.516;2023-04-25T13:21:29;27.40;;;0.80;;
3817;SDS011;1924;48.078;11.516;2023-04-25T13:23:57;27.50;;;0.70;;
3817;SDS011;1924;48.078;11.516;2023-04-25T13:26:24;27.30;;;0.70;;
3817;SDS011;1924;48.078;11.516;2023-04-25T13:28:51;27.60;;;0.77;;
3817;SDS011;1924;48.078;11.516;2023-04-25T13:31:18;27.40;;;0.80;;
3817;SDS011;1924;48.078;11.516;2023-04-25T13:33:45;27.30;;;0.73;;
3817;SDS011;1924;48.078;11.516;2023-04-25T13:36:12;27.60;;;0.80;;
3817;SDS011;1924;48.078;11.516;2023-04-25T13:38:40;27.20;;;0.80;;
3817;SDS011;1924;48.078;11.516;2023-04-25T13:41:08;27.40;;;0.70;;
3817;SDS011;1924;48.078;11.516;2023-04-25T13:43:36;27.30;;;0.80;;
3817;SDS011;1924;48.078;11.516;2023-04-25T13:46:02;27.37;;;0.80;;
3817;SDS011;1924;48.078;11.516;2023-04-25T13:48:29;27.40;;;0.80;;
3817;SDS011;1924;48.078;11.516;2023-04-25T13:50:56;27.40;;;0.80;;
3817;SDS011;1924;48.078;11.516;2023-04-25T13:53:23;27.37;;;0.80;;
3817;SDS011;1924;48.078;11.516;2023-04-25T13:55:51;27.40;;;0.80;;
3817;SDS011;1924;48.078;11.516;2023-04-25T13:58:18;27.50;;;0.80;;
3817;SDS011;1924;48.078;11.516;2023-04-25T14:00:46;27.40;;;0.80;;
3817;SDS011;1924;48.078;11.516;2023-04-25T14:03:12;27.50;;;0.80;;
3817;SDS011;1924;48.078;11.516;2023-04-25T14:05:39;27.27;;;0.80;;
3817;SDS011;1924;48.078;11.516;2023-04-25T14:08:06;27.60;;;0.80;;
3817;SDS011;1924;48.078;11.516;2023-04-25T14:10:33;27.60;;;0.80;;
3817;SDS011;1924;48.078;11.516;2023-04-25T14:13:02;27.50;;;0.77;;
3817;SDS011;1924;48.078;11.516;2023-04-25T14:15:31;27.30;;;0.80;;
3817;SDS011;1924;48.078;11.516;2023-04-25T14:17:58;27.50;;;0.80;;
3817;SDS011;1924;48.078;11.516;2023-04-25T14:20:25;27.50;;;0.80;;
3817;SDS011;1924;48.078;11.516;2023-04-25T14:22:51;27.50;;;0.80;;
3817;SDS011;1924;48.078;11.516;2023-04-25T14:25:21;27.60;;;0.80;;
3817;SDS011;1924;48.078;11.516;2023-04-25T14:27:47;27.40;;;0.80;;
3817;SDS011;1924;48.078;11.516;2023-04-25T14:30:17;27.50;;;0.80;;
3817;SDS011;1924;48.078;11.516;2023-04-25T14:32:44;27.30;;;0.80;;
3817;SDS011;1924;48.078;11.516;2023-04-25T14:35:11;27.40;;;0.80;;
3817;SDS011;1924;48.078;11.516;2023-04-25T14:37:38;27.20;;;0.80;;
3817;SDS011;1924;48.078;11.516;2023-04-25T14:40:05;27.30;;;0.80;;
3817;SDS011;1924;48.078;11.516;2023-04-25T14:42:33;27.50;;;0.80;;
3817;SDS011;1924;48.078;11.516;2023-04-25T14:45:00;27.50;;;0.77;;
3817;SDS011;1924;48.078;11.516;2023-04-25T14:47:28;27.40;;;0.70;;
3817;SDS011;1924;48.078;11.516;2023-04-25T14:49:56;27.50;;;0.80;;
3817;SDS011;1924;48.078;11.516;2023-04-25T14:52:22;27.40;;;0.80;;
3817;SDS011;1924;48.078;11.516;2023-04-25T14:54:50;27.50;;;0.80;;
3817;SDS011;1924;48.078;11.516;2023-04-25T14:57:17;27.40;;;0.80;;
3817;SDS011;1924;48.078;11.516;2023-04-25T14:59:44;27.40;;;0.70;;
3817;SDS011;1924;48.078;11.516;2023-04-25T15:02:11;27.30;;;0.80;;
3817;SDS011;1924;48.078;11.516;2023-04-25T15:04:39;27.30;;;0.80;;
3817;SDS011;1924;48.078;11.516;2023-04-25T15:07:06;27.40;;;0.80;;
3817;SDS011;1924;48.078;11.516;2023-04-25T15:09:33;27.27;;;0.80;;
3817;SDS011;1924;48.078;11.516;2023-04-25T15:12:00;27.30;;;0.80;;
3817;SDS011;1924;48.078;11.516;2023-04-25T15:14:27;27.50;;;0.80;;
3817;SDS011;1924;48.078;11.516;2023-04-25T15:16:54;27.30;;;0.80;;
3817;SDS011;1924;48.078;11.516;2023-04-25T15:19:21;27.30;;;0.80;;
3817;SDS011;1924;48.078;11.516;2023-04-25T15:21:49;27.30;;;0.73;;
3817;SDS011;1924;48.078;11.516;2023-04-25T15:24:16;27.40;;;0.80;;
3817;SDS011;1924;48.078;11.516;2023-04-25T15:26:43;27.40;;;0.80;;
3817;SDS011;1924;48.078;11.516;2023-04-25T15:29:10;27.30;;;0.80;;
3817;SDS011;1924;48.078;11.516;2023-04-25T15:31:37;27.40;;;0.77;;
3817;SDS011;1924;48.078;11.516;2023-04-25T15:34:04;27.40;;;0.80;;
3817;SDS011;1924;48.078;11.516;2023-04-25T15:36:31;27.20;;;0.80;;
3817;SDS011;1924;48.078;11.516;2023-04-25T15:38:59;27.50;;;0.80;;
3817;SDS011;1924;48.078;11.516;2023-04-25T15:41:28;27.40;;;0.80;;
3817;SDS011;1924;48.078;11.516;2023-04-25T15:43:55;27.40;;;0.80;;
3817;SDS011;1924;48.078;11.516;2023-04-25T15:46:22;27.40;;;0.80;;
3817;SDS011;1924;48.078;11.516;2023-04-25T15:48:48;27.27;;;0.80;;
3817;SDS011;1924;48.078;11.516;2023-04-25T15:51:15;27.27;;;0.80;;
3817;SDS011;1924;48.078;11.516;2023-04-25T15:53:42;27.40;;;0.70;;
3817;SDS011;1924;48.078;11.516;2023-04-25T15:56:10;27.40;;;0.80;;
3817;SDS011;1924;48.078;11.516;2023-04-25T15:58:37;27.40;;;0.73;;
3817;SDS011;1924;48.078;11.516;2023-04-25T16:01:03;27.30;;;0.80;;
3817;SDS011;1924;48.078;11.516;2023-04-25T16:03:31;27.40;;;0.70;;
3817;SDS011;1924;48.078;11.516;2023-04-25T16:05:58;27.40;;;0.80;;
3817;SDS011;1924;48.078;11.516;2023-04-25T16:08:25;27.40;;;0.80;;
3817;SDS011;1924;48.078;11.516;2023-04-25T16:10:53;27.40;;;0.80;;
3817;SDS011;1924;48.078;11.516;2023-04-25T16:13:22;27.30;;;0.80;;
3817;SDS011;1924;48.078;11.516;2023-04-25T16:15:48;27.30;;;0.80;;
3817;SDS011;1924;48.078;11.516;2023-04-25T16:18:15;27.40;;;0.80;;
3817;SDS011;1924;48.078;11.516;2023-04-25T16:20:42;27.40;;;0.70;;
3817;SDS011;1924;48.078;11.516;2023-04-25T16:23:09;27.40;;;0.80;;
3817;SDS011;1924;48.078;11.516;2023-04-25T16:25:36;27.30;;;0.80;;
3817;SDS011;1924;48.078;11.516;2023-04-25T16:28:03;27.40;;;0.80;;
3817;SDS011;1924;48.078;11.516;2023-04-25T16:30:31;27.30;;;0.80;;
3817;SDS011;1924;48.078;11.516;2023-04-25T16:32:58;27.40;;;0.80;;
3817;SDS011;1924;48.078;11.516;2023-04-25T16:35:24;27.40;;;0.80;;
3817;SDS011;1924;48.078;11.516;2023-04-25T16:37:54;27.50;;;0.80;;
3817;SDS011;1924;48.078;11.516;2023-04-25T16:40:21;27.40;;;0.80;;
3817;SDS011;1924;48.078;11.516;2023-04-25T16:42:48;27.40;;;0.80;;
3817;SDS011;1924;48.078;11.516;2023-04-25T16:45:15;27.43;;;0.73;;
3817;SDS011;1924;48.078;11.516;2023-04-25T16:47:45;27.40;;;0.77;;
3817;SDS011;1924;48.078;11.516;2023-04-25T16:50:12;27.40;;;0.80;;
3817;SDS011;1924;48.078;11.516;2023-04-25T16:52:39;27.40;;;0.77;;
3817;SDS011;1924;48.078;11.516;2023-04-25T16:55:06;27.30;;;0.80;;
3817;SDS011;1924;48.078;11.516;2023-04-25T16:57:34;27.40;;;0.80;;
3817;SDS011;1924;48.078;11.516;2023-04-25T17:00:01;27.40;;;0.80;;
3817;SDS011;1924;48.078;11.516;2023-04-25T17:02:29;27.30;;;0.80;;
3817;SDS011;1924;48.078;11.516;2023-04-25T17:04:57;27.30;;;0.80;;
3817;SDS011;1924;48.078;11.516;2023-04-25T17:07:24;27.50;;;0.80;;
3817;SDS011;1924;48.078;11.516;2023-04-25T17:09:51;27.40;;;0.80;;
3817;SDS011;1924;48.078;11.516;2023-04-25T17:12:18;27.20;;;0.80;;
3817;SDS011;1924;48.078;11.516;2023-04-25T17:14:46;27.30;;;0.80;;
3817;SDS011;1924;48.078;11.516;2023-04-25T17:17:13;27.40;;;0.80;;
3817;SDS011;1924;48.078;11.516;2023-04-25T17:19:42;27.30;;;0.70;;
3817;SDS011;1924;48.078;11.516;2023-04-25T17:22:11;27.27;;;0.77;;
3817;SDS011;1924;48.078;11.516;2023-04-25T17:24:37;27.40;;;0.80;;
3817;SDS011;1924;48.078;11.516;2023-04-25T17:27:05;27.20;;;0.80;;
3817;SDS011;1924;48.078;11.516;2023-04-25T17:29:32;27.30;;;0.70;;
3817;SDS011;1924;48.078;11.516;2023-04-25T17:31:59;27.40;;;0.80;;
3817;SDS011;1924;48.078;11.516;2023-04-25T17:34:26;27.50;;;0.70;;
3817;SDS011;1924;48.078;11.516;2023-04-25T17:36:53;27.40;;;0.80;;
3817;SDS011;1924;48.078;11.516;2023-04-25T17:39:21;27.40;;;0.80;;
3817;SDS011;1924;48.078;11.516;2023-04-25T17:41:48;27.30;;;0.80;;
3817;SDS011;1924;48.078;11.516;2023-04-25T17:44:16;27.50;;;0.80;;
3817;SDS011;1924;48.078;11.516;2023-04-25T17:46:42;27.60;;;0.80;;
3817;SDS011;1924;48.078;11.516;2023-04-25T17:49:09;27.67;;;0.77;;
3817;SDS011;1924;48.078;11.516;2023-04-25T17:51:36;27.60;;;0.80;;
3817;SDS011;1924;48.078;11.516;2023-04-25T17:54:03;27.40;;;0.80;;
3817;SDS011;1924;48.078;11.516;2023-04-25T17:56:32;27.60;;;0.80;;
3817;SDS011;1924;48.078;11.516;2023-04-25T17:59:01;27.60;;;0.80;;
3817;SDS011;1924;48.078;11.516;2023-04-25T18:01:28;27.50;;;0.80;;
3817;SDS011;1924;48.078;11.516;2023-04-25T18:03:55;27.70;;;0.80;;
3817;SDS011;1924;48.078;11.516;2023-04-25T18:06:22;27.60;;;0.80;;
3817;SDS011;1924;48.078;11.516;2023-04-25T18:08:48;27.80;;;0.80;;
3817;SDS011;1924;48.078;11.516;2023-04-25T18:11:16;27.70;;;0.80;;
3817;SDS011;1924;48.078;11.516;2023-04-25T18:13:44;27.70;;;0.80;;
3817;SDS011;1924;48.078;11.516;2023-04-25T18:16:11;27.70;;;0.80;;
3817;SDS011;1924;48.078;11.516;2023-04-25T18:18:37;27.80;;;0.80;;
3817;SDS011;1924;48.078;11.516;2023-04-25T18:21:07;27.80;;;0.80;;
3817;SDS011;1924;48.078;11.516;2023-04-25T18:23:35;27.70;;;0.80;;
3817;SDS011;1924;48.078;11.516;2023-04-25T18:26:02;27.70;;;0.80;;
3817;SDS011;1924;48.078;11.516;2023-04-25T18:28:30;27.43;;;0.80;;
3817;SDS011;1924;48.078;11.516;2023-04-25T18:30:59;27.70;;;0.80;;
3817;SDS011;1924;48.078;11.516;2023-04-25T18:33:26;27.70;;;0.80;;
3817;SDS011;1924;48.078;11.516;2023-04-25T18:35:52;27.80;;;0.80;;
3817;SDS011;1924;48.078;11.516;2023-04-25T18:38:21;27.70;;;0.80;;
3817;SDS011;1924;48.078;11.516;2023-04-25T18:40:48;27.90;;;0.80;;
3817;SDS011;1924;48.078;11.516;2023-04-25T18:43:17;27.90;;;0.80;;
3817;SDS011;1924;48.078;11.516;2023-04-25T18:45:45;27.90;;;0.80;;
3817;SDS011;1924;48.078;11.516;2023-04-25T18:48:13;27.90;;;0.80;;
3817;SDS011;1924;48.078;11.516;2023-04-25T18:50:40;27.90;;;0.80;;
3817;SDS011;1924;48.078;11.516;2023-04-25T18:53:07;27.77;;;0.80;;